Time;durP1;ratioP1;P1;durP2;ratioP2;P2;SDS_P1;SDS_P2;PMS_P1;PMS_P2;Temp;Humidity;BMP_temperature;BMP_pressure;BME280_temperature;BME280_humidity;BME280_pressure;Samples;Min_cycle;Max_cycle;Signal;HPM_P1;HPM_P2
2023/04/22 00:00:37;;;;;;;11.35;5.68;;;12.20;35.90;;;;;;5036478;28;20045;-61
2023/04/22 00:03:03;;;;;;;11.05;5.80;;;12.20;36.80;;;;;;5047348;28;20049;-61
2023/04/22 00:05:29;;;;;;;7.25;5.43;;;12.10;38.20;;;;;;5047825;28;20115;-70
2023/04/22 00:07:54;;;;;;;9.95;5.28;;;12.00;39.20;;;;;;5048957;28;20045;-61
2023/04/22 00:10:20;;;;;;;5.53;4.93;;;11.90;41.10;;;;;;5047985;28;20483;-61
2023/04/22 00:12:46;;;;;;;10.13;5.20;;;11.80;43.20;;;;;;5048681;28;20501;-62
2023/04/22 00:15:12;;;;;;;9.05;5.25;;;11.70;45.20;;;;;;5046332;28;20056;-62
2023/04/22 00:17:39;;;;;;;7.35;5.40;;;11.70;47.70;;;;;;5048002;28;20080;-62
2023/04/22 00:20:06;;;;;;;8.52;5.57;;;11.60;49.30;;;;;;5030690;28;20452;-61
2023/04/22 00:22:32;;;;;;;6.93;5.15;;;11.50;51.40;;;;;;5047823;28;20055;-61
2023/04/22 00:24:58;;;;;;;5.78;5.05;;;11.40;56.10;;;;;;5048830;28;20554;-62
2023/04/22 00:27:23;;;;;;;11.35;5.53;;;11.40;60.80;;;;;;5029457;28;20483;-61
2023/04/22 00:29:49;;;;;;;8.30;5.18;;;11.40;63.30;;;;;;5047456;28;20051;-61
2023/04/22 00:32:15;;;;;;;11.73;5.25;;;11.30;67.10;;;;;;5047717;28;20090;-61
2023/04/22 00:34:41;;;;;;;6.72;5.65;;;11.20;71.50;;;;;;5047945;28;20510;-61
2023/04/22 00:37:06;;;;;;;14.73;6.13;;;11.10;74.00;;;;;;5030227;28;20056;-61
2023/04/22 00:39:32;;;;;;;9.45;5.53;;;11.00;76.10;;;;;;5047256;28;20410;-61
2023/04/22 00:41:59;;;;;;;12.13;5.30;;;11.00;76.30;;;;;;5048305;28;20500;-61
2023/04/22 00:44:26;;;;;;;6.45;5.70;;;11.10;72.00;;;;;;5047510;28;20081;-61
2023/04/22 00:46:52;;;;;;;11.77;5.68;;;11.10;69.80;;;;;;5047739;28;20545;-61
2023/04/22 00:49:19;;;;;;;9.18;5.35;;;11.20;67.90;;;;;;5046984;28;20363;-61
2023/04/22 00:51:44;;;;;;;7.82;5.60;;;11.30;67.40;;;;;;5047561;28;20382;-61
2023/04/22 00:54:10;;;;;;;7.30;5.43;;;11.30;67.70;;;;;;5029479;28;20041;-61
2023/04/22 00:56:37;;;;;;;7.97;6.07;;;11.30;68.20;;;;;;5012968;28;20536;-61
2023/04/22 00:59:03;;;;;;;8.85;6.45;;;11.20;69.80;;;;;;5047377;28;20083;-61
2023/04/22 01:01:29;;;;;;;7.53;5.53;;;11.20;70.40;;;;;;5047340;28;20131;-61
2023/04/22 01:03:56;;;;;;;6.40;5.65;;;11.20;71.90;;;;;;5047858;28;20064;-61
2023/04/22 01:06:23;;;;;;;5.97;5.35;;;11.20;73.60;;;;;;5046874;28;20442;-61
2023/04/22 01:08:49;;;;;;;8.43;5.55;;;11.10;74.30;;;;;;5047105;28;20130;-61
2023/04/22 01:11:15;;;;;;;6.45;5.43;;;11.10;75.70;;;;;;5012148;28;20468;-61
2023/04/22 01:13:41;;;;;;;7.55;6.20;;;11.10;76.50;;;;;;5046811;28;20061;-61
2023/04/22 01:16:07;;;;;;;11.95;5.20;;;11.10;78.80;;;;;;5047292;28;20045;-61
2023/04/22 01:18:35;;;;;;;9.50;6.10;;;11.10;82.40;;;;;;5046438;28;20055;-61
2023/04/22 01:21:01;;;;;;;8.48;5.68;;;11.10;83.20;;;;;;5048021;28;20107;-61
2023/04/22 01:23:28;;;;;;;8.13;5.97;;;11.10;85.00;;;;;;5047118;28;20041;-61
2023/04/22 01:25:53;;;;;;;8.77;6.32;;;11.10;90.10;;;;;;5047221;28;20051;-61
2023/04/22 01:28:19;;;;;;;9.77;5.68;;;11.10;90.60;;;;;;5047014;28;20057;-61
2023/04/22 01:30:48;;;;;;;7.45;5.93;;;11.10;91.10;;;;;;5047350;28;20095;-61
2023/04/22 01:33:15;;;;;;;8.35;6.35;;;11.00;91.10;;;;;;5029786;28;20115;-61
2023/04/22 01:35:41;;;;;;;7.78;6.13;;;11.00;90.90;;;;;;5047346;28;20567;-61
2023/04/22 01:38:08;;;;;;;11.73;6.63;;;10.90;90.50;;;;;;5047273;28;20128;-61
2023/04/22 01:40:34;;;;;;;10.43;6.50;;;10.80;91.00;;;;;;5028180;28;20052;-61
2023/04/22 01:43:01;;;;;;;8.73;6.43;;;10.90;92.80;;;;;;5048100;28;20040;-61
2023/04/22 01:45:27;;;;;;;6.57;5.47;;;10.80;93.40;;;;;;5046509;28;20111;-61
2023/04/22 01:47:53;;;;;;;9.88;6.10;;;10.80;92.60;;;;;;5046041;28;20134;-61
2023/04/22 01:50:20;;;;;;;6.55;5.68;;;10.80;92.80;;;;;;5045628;28;20545;-61
2023/04/22 01:52:45;;;;;;;19.25;5.72;;;10.70;92.40;;;;;;5046689;28;20103;-61
2023/04/22 01:55:12;;;;;;;10.57;5.68;;;10.60;90.40;;;;;;5045731;28;20433;-61
2023/04/22 01:57:37;;;;;;;7.13;5.55;;;10.70;87.40;;;;;;5028191;28;20081;-61
2023/04/22 02:00:04;;;;;;;10.15;5.40;;;10.80;86.40;;;;;;5046645;28;20521;-61
2023/04/22 02:02:30;;;;;;;6.63;5.85;;;10.80;83.50;;;;;;5045430;28;20040;-61
2023/04/22 02:04:56;;;;;;;7.88;5.75;;;10.90;83.00;;;;;;5046145;28;20525;-61
2023/04/22 02:07:22;;;;;;;10.43;5.53;;;10.90;79.50;;;;;;5045864;28;20342;-61
2023/04/22 02:09:48;;;;;;;8.35;5.28;;;10.90;78.30;;;;;;5046467;28;20091;-61
2023/04/22 02:12:14;;;;;;;7.13;5.00;;;11.00;76.80;;;;;;5045337;28;20510;-61
2023/04/22 02:14:40;;;;;;;10.15;5.38;;;11.00;75.50;;;;;;5045609;28;20049;-61
2023/04/22 02:17:05;;;;;;;10.98;5.43;;;11.00;74.70;;;;;;5028209;28;20060;-61
2023/04/22 02:19:31;;;;;;;9.30;5.50;;;11.10;71.90;;;;;;5045444;28;20041;-61
2023/04/22 02:21:57;;;;;;;8.50;5.72;;;11.20;70.90;;;;;;5046018;28;20104;-61
2023/04/22 02:24:23;;;;;;;9.43;5.70;;;11.30;67.70;;;;;;5044694;28;20105;-61
2023/04/22 02:26:49;;;;;;;9.25;5.70;;;11.30;66.50;;;;;;5028538;28;20080;-61
2023/04/22 02:29:16;;;;;;;12.38;5.38;;;11.40;67.30;;;;;;5045106;28;20049;-61
2023/04/22 02:31:41;;;;;;;10.82;5.57;;;11.40;65.70;;;;;;5045745;28;20040;-61
2023/04/22 02:34:07;;;;;;;9.70;5.93;;;11.30;65.30;;;;;;5029551;28;20498;-61
2023/04/22 02:36:33;;;;;;;15.32;5.97;;;11.30;64.50;;;;;;5029994;28;20045;-61
2023/04/22 02:39:02;;;;;;;8.18;5.65;;;11.30;64.20;;;;;;5029835;28;20049;-61
2023/04/22 02:41:28;;;;;;;7.80;5.70;;;11.30;64.50;;;;;;5046741;28;20033;-61
2023/04/22 02:43:53;;;;;;;6.80;5.50;;;11.20;63.90;;;;;;5046461;28;20045;-61
2023/04/22 02:46:19;;;;;;;8.60;5.75;;;11.20;64.00;;;;;;5010338;28;20490;-61
2023/04/22 02:48:45;;;;;;;7.97;6.13;;;11.20;64.10;;;;;;5046172;28;20087;-61
2023/04/22 02:51:11;;;;;;;12.82;5.70;;;11.10;64.50;;;;;;5045313;28;20045;-61
2023/04/22 02:53:37;;;;;;;12.63;6.10;;;11.10;65.30;;;;;;5045372;28;20052;-61
2023/04/22 02:56:04;;;;;;;11.50;6.05;;;11.00;65.70;;;;;;5027747;28;20423;-61
2023/04/22 02:58:30;;;;;;;9.85;5.68;;;10.90;66.20;;;;;;5045344;28;20033;-61
2023/04/22 03:00:56;;;;;;;9.68;5.78;;;10.90;66.80;;;;;;5045267;28;20171;-61
2023/04/22 03:03:22;;;;;;;8.15;5.70;;;10.80;68.80;;;;;;5044942;28;20124;-61
2023/04/22 03:05:48;;;;;;;11.80;5.95;;;10.80;70.00;;;;;;5045679;28;20116;-61
2023/04/22 03:08:17;;;;;;;7.47;5.85;;;10.80;71.30;;;;;;5010624;28;20041;-61
2023/04/22 03:10:43;;;;;;;7.05;6.15;;;10.60;70.90;;;;;;5025754;28;20099;-61
2023/04/22 03:13:09;;;;;;;13.15;7.15;;;10.50;72.90;;;;;;5045521;28;20037;-61
2023/04/22 03:15:34;;;;;;;9.60;6.07;;;10.40;75.50;;;;;;5045012;28;20144;-61
2023/04/22 03:18:00;;;;;;;9.82;6.30;;;10.30;78.40;;;;;;5045412;28;20063;-94
2023/04/22 03:20:26;;;;;;;9.27;6.03;;;10.20;77.90;;;;;;5026954;28;20052;-61
2023/04/22 03:22:51;;;;;;;15.40;5.97;;;10.10;82.90;;;;;;5045444;28;20179;-62
2023/04/22 03:25:17;;;;;;;7.57;5.93;;;10.00;85.30;;;;;;5010198;28;20087;-61
2023/04/22 03:27:43;;;;;;;7.65;5.80;;;9.90;85.60;;;;;;5045698;28;20049;-61
2023/04/22 03:30:09;;;;;;;9.38;6.28;;;9.70;87.30;;;;;;5044794;28;20044;-61
2023/04/22 03:32:35;;;;;;;7.75;6.45;;;9.80;89.60;;;;;;5023928;28;20088;-61
2023/04/22 03:35:01;;;;;;;8.10;6.00;;;9.80;87.70;;;;;;5045110;28;20518;-61
2023/04/22 03:37:27;;;;;;;7.63;6.47;;;9.70;87.40;;;;;;5044707;28;20140;-81
2023/04/22 03:39:52;;;;;;;7.50;5.50;;;9.60;88.50;;;;;;5045349;28;20378;-61
2023/04/22 03:42:18;;;;;;;8.35;5.80;;;9.50;90.30;;;;;;5044290;28;20041;-72
2023/04/22 03:44:44;;;;;;;8.90;6.53;;;9.40;91.00;;;;;;5045974;28;20555;-61
2023/04/22 03:47:10;;;;;;;9.82;5.65;;;9.40;92.20;;;;;;5044162;28;20068;-61
2023/04/22 03:49:36;;;;;;;9.00;6.38;;;9.30;93.60;;;;;;5046974;28;20463;-61
2023/04/22 03:52:02;;;;;;;8.55;6.38;;;9.30;94.60;;;;;;5034640;28;20052;-63
2023/04/22 03:54:28;;;;;;;13.85;5.70;;;9.30;94.50;;;;;;5048432;28;20055;-61
2023/04/22 03:56:54;;;;;;;6.57;5.88;;;9.20;95.20;;;;;;5048993;28;20041;-61
2023/04/22 03:59:19;;;;;;;13.20;7.13;;;9.30;95.10;;;;;;5030540;28;20040;-61
2023/04/22 04:01:46;;;;;;;10.50;6.60;;;9.20;95.60;;;;;;5048836;28;20044;-61
2023/04/22 04:04:12;;;;;;;12.25;6.53;;;9.20;95.90;;;;;;5047654;28;20045;-61
2023/04/22 04:06:38;;;;;;;7.35;6.55;;;9.20;95.60;;;;;;5031064;28;20626;-61
2023/04/22 04:09:04;;;;;;;12.63;6.30;;;9.30;96.00;;;;;;5048069;28;20041;-61
2023/04/22 04:11:30;;;;;;;10.13;6.70;;;9.40;95.30;;;;;;5048471;28;20052;-61
2023/04/22 04:13:56;;;;;;;7.53;6.18;;;9.30;94.50;;;;;;5026818;28;20072;-61
2023/04/22 04:16:21;;;;;;;9.23;6.40;;;9.30;94.30;;;;;;5047734;28;20507;-61
2023/04/22 04:18:50;;;;;;;13.73;6.88;;;9.30;94.30;;;;;;5048955;28;20127;-61
2023/04/22 04:21:16;;;;;;;7.85;6.10;;;9.20;94.50;;;;;;5042493;28;20049;-61
2023/04/22 04:23:42;;;;;;;12.32;6.45;;;9.20;94.80;;;;;;5039902;28;20402;-61
2023/04/22 04:26:08;;;;;;;10.85;6.30;;;9.20;95.20;;;;;;5047299;28;20049;-61
2023/04/22 04:28:34;;;;;;;14.95;6.05;;;9.10;95.60;;;;;;5048741;28;20041;-61
2023/04/22 04:31:04;;;;;;;11.90;6.10;;;9.10;95.90;;;;;;5047622;28;20053;-61
2023/04/22 04:33:31;;;;;;;9.55;6.43;;;9.10;96.40;;;;;;5047639;28;20499;-61
2023/04/22 04:35:57;;;;;;;8.32;6.00;;;9.20;96.50;;;;;;5047812;28;20102;-61
2023/04/22 04:38:23;;;;;;;9.15;7.18;;;9.20;96.60;;;;;;5029150;28;20414;-61
2023/04/22 04:40:50;;;;;;;9.07;6.53;;;9.30;96.00;;;;;;5048777;28;20053;-61
2023/04/22 04:43:16;;;;;;;10.73;5.97;;;9.30;96.10;;;;;;5046151;28;20040;-60
2023/04/22 04:45:45;;;;;;;11.73;6.20;;;9.40;95.50;;;;;;5048263;28;20049;-61
2023/04/22 04:48:14;;;;;;;8.27;6.27;;;9.40;94.60;;;;;;5047170;28;20048;-61
2023/04/22 04:50:43;;;;;;;11.38;6.47;;;9.50;94.00;;;;;;5029880;28;20060;-62
2023/04/22 04:53:10;;;;;;;7.75;6.30;;;9.50;93.90;;;;;;5047385;28;20048;-61
2023/04/22 04:55:36;;;;;;;9.65;6.70;;;9.50;93.90;;;;;;5028886;28;20049;-61
2023/04/22 04:58:02;;;;;;;11.05;7.07;;;9.60;93.50;;;;;;5047484;28;20434;-61
2023/04/22 05:00:28;;;;;;;8.48;6.50;;;9.60;92.90;;;;;;5028021;28;20501;-62
2023/04/22 05:02:54;;;;;;;8.75;6.53;;;9.70;92.20;;;;;;5047789;28;20131;-61
2023/04/22 05:05:19;;;;;;;8.93;6.65;;;9.70;91.80;;;;;;5046631;28;20166;-61
2023/04/22 05:07:45;;;;;;;17.35;7.22;;;9.80;90.90;;;;;;5047467;28;20388;-60
2023/04/22 05:10:11;;;;;;;10.57;6.93;;;9.90;90.50;;;;;;5029174;28;20076;-61
2023/04/22 05:12:37;;;;;;;9.82;6.45;;;9.90;90.40;;;;;;5047060;28;20045;-61
2023/04/22 05:15:03;;;;;;;8.88;6.55;;;9.90;90.40;;;;;;5046340;28;20091;-61
2023/04/22 05:17:29;;;;;;;8.50;6.63;;;9.80;90.90;;;;;;5045692;28;20117;-61
2023/04/22 05:19:55;;;;;;;10.75;6.55;;;9.80;91.70;;;;;;5047989;28;20395;-60
2023/04/22 05:22:20;;;;;;;12.63;6.60;;;9.80;92.70;;;;;;5046005;28;20048;-61
2023/04/22 05:24:46;;;;;;;9.65;6.63;;;9.90;93.20;;;;;;5037219;28;20119;-61
2023/04/22 05:27:12;;;;;;;7.78;6.00;;;9.90;93.40;;;;;;5027757;28;20052;-61
2023/04/22 05:29:38;;;;;;;11.00;6.50;;;9.90;92.40;;;;;;5025625;28;20045;-61
2023/04/22 05:32:04;;;;;;;8.35;6.30;;;10.00;92.00;;;;;;5010080;28;20077;-61
2023/04/22 05:34:30;;;;;;;8.55;6.75;;;10.00;91.50;;;;;;5042924;28;20040;-61
2023/04/22 05:36:56;;;;;;;8.85;6.53;;;10.10;91.30;;;;;;5009031;28;20503;-61
2023/04/22 05:39:21;;;;;;;12.00;6.90;;;10.10;91.10;;;;;;5036970;28;20041;-61
2023/04/22 05:41:47;;;;;;;10.55;7.13;;;10.10;91.10;;;;;;5009809;28;20045;-61
2023/04/22 05:44:13;;;;;;;10.25;6.93;;;10.10;91.60;;;;;;5027700;28;20048;-62
2023/04/22 05:46:39;;;;;;;7.93;6.50;;;10.10;92.00;;;;;;5042748;28;20033;-61
2023/04/22 05:49:05;;;;;;;13.13;7.20;;;10.10;92.40;;;;;;5043673;28;20608;-61
2023/04/22 05:51:31;;;;;;;9.10;6.90;;;10.10;92.80;;;;;;5046464;28;20103;-69
2023/04/22 05:53:57;;;;;;;11.93;7.05;;;10.10;93.20;;;;;;5046991;28;20057;-61
2023/04/22 05:56:23;;;;;;;13.35;7.78;;;10.10;93.50;;;;;;5045136;28;20051;-61
2023/04/22 05:58:48;;;;;;;10.52;6.88;;;10.20;92.90;;;;;;5046841;28;20051;-61
2023/04/22 06:01:14;;;;;;;8.95;6.88;;;10.20;93.00;;;;;;5045174;28;20087;-68
2023/04/22 06:03:40;;;;;;;9.13;7.20;;;10.20;93.40;;;;;;5046867;28;20479;-68
2023/04/22 06:06:06;;;;;;;12.15;7.40;;;10.30;93.40;;;;;;5046169;28;20471;-61
2023/04/22 06:08:31;;;;;;;16.90;7.47;;;10.40;93.80;;;;;;5046222;28;20041;-61
2023/04/22 06:10:57;;;;;;;10.60;6.82;;;10.40;93.70;;;;;;5028764;28;20498;-61
2023/04/22 06:13:24;;;;;;;9.38;7.00;;;10.50;93.70;;;;;;5045142;28;20124;-61
2023/04/22 06:15:50;;;;;;;12.35;7.07;;;10.60;93.90;;;;;;5046892;28;20072;-61
2023/04/22 06:18:16;;;;;;;16.58;6.95;;;10.70;94.00;;;;;;5044854;28;20132;-61
2023/04/22 06:20:41;;;;;;;10.20;6.95;;;10.70;92.70;;;;;;5047050;28;20121;-61
2023/04/22 06:23:07;;;;;;;7.97;6.57;;;10.80;93.00;;;;;;5014110;28;20462;-61
2023/04/22 06:25:33;;;;;;;12.10;6.50;;;10.90;92.60;;;;;;5045439;28;20064;-61
2023/04/22 06:27:59;;;;;;;10.25;6.90;;;10.90;92.00;;;;;;5046267;28;20049;-60
2023/04/22 06:30:26;;;;;;;9.18;7.20;;;11.10;91.90;;;;;;5045582;28;20490;-61
2023/04/22 06:32:52;;;;;;;9.48;6.63;;;11.10;91.80;;;;;;5046166;28;20037;-61
2023/04/22 06:35:17;;;;;;;11.30;6.90;;;11.20;91.80;;;;;;5044399;28;20048;-60
2023/04/22 06:37:43;;;;;;;14.48;7.35;;;11.30;91.20;;;;;;5028437;28;20506;-61
2023/04/22 06:40:10;;;;;;;12.05;7.35;;;11.40;91.60;;;;;;5044999;28;20083;-61
2023/04/22 06:42:35;;;;;;;14.13;7.00;;;11.50;90.70;;;;;;5046462;28;20063;-61
2023/04/22 06:45:03;;;;;;;7.82;6.75;;;11.50;90.40;;;;;;5027604;28;20556;-61
2023/04/22 06:47:29;;;;;;;12.73;7.13;;;11.60;87.90;;;;;;5027467;28;20451;-61
2023/04/22 06:49:54;;;;;;;13.50;7.50;;;11.70;90.60;;;;;;5045656;28;20049;-61
2023/04/22 06:52:21;;;;;;;9.32;6.85;;;11.80;90.60;;;;;;5045057;28;20037;-61
2023/04/22 06:54:46;;;;;;;20.10;9.23;;;11.90;90.00;;;;;;5044987;28;20045;-82
2023/04/22 06:57:12;;;;;;;15.93;7.50;;;12.00;90.00;;;;;;5044419;28;20053;-61
2023/04/22 06:59:38;;;;;;;8.68;7.03;;;12.20;90.70;;;;;;5046063;28;20514;-61
2023/04/22 07:02:04;;;;;;;10.38;8.20;;;12.20;87.40;;;;;;5044040;28;20045;-74
2023/04/22 07:04:30;;;;;;;9.02;7.25;;;12.40;87.10;;;;;;5045994;28;20583;-61
2023/04/22 07:06:57;;;;;;;8.73;7.35;;;12.40;83.30;;;;;;5044823;28;20045;-61
2023/04/22 07:09:23;;;;;;;15.43;8.05;;;12.50;80.30;;;;;;5045941;28;20510;-61
2023/04/22 07:11:48;;;;;;;9.70;6.88;;;12.50;81.30;;;;;;5008229;28;20056;-61
2023/04/22 07:14:14;;;;;;;10.85;7.70;;;12.60;79.30;;;;;;5043899;28;20060;-61
2023/04/22 07:16:40;;;;;;;12.50;6.70;;;12.60;75.70;;;;;;5036921;28;20511;-60
2023/04/22 07:19:06;;;;;;;8.43;7.28;;;12.70;78.80;;;;;;5043352;28;20116;-61
2023/04/22 07:21:32;;;;;;;13.88;7.40;;;12.70;77.40;;;;;;5038387;28;20049;-61
2023/04/22 07:23:58;;;;;;;13.38;6.63;;;12.80;77.20;;;;;;5027120;28;20124;-61
2023/04/22 07:26:24;;;;;;;8.07;6.55;;;12.80;75.50;;;;;;5044770;28;20140;-61
2023/04/22 07:28:50;;;;;;;17.58;7.78;;;12.80;76.10;;;;;;5047259;28;20037;-61
2023/04/22 07:31:16;;;;;;;19.30;6.90;;;12.90;75.90;;;;;;5047994;28;20036;-61
2023/04/22 07:33:41;;;;;;;14.18;7.13;;;13.00;76.80;;;;;;5029784;28;20144;-61
2023/04/22 07:36:07;;;;;;;9.60;6.50;;;13.10;78.50;;;;;;5040864;28;20044;-61
2023/04/22 07:38:33;;;;;;;12.43;6.90;;;13.10;76.40;;;;;;5030379;28;20057;-61
2023/04/22 07:40:59;;;;;;;12.38;6.47;;;13.20;74.60;;;;;;5038672;28;20041;-61
2023/04/22 07:43:24;;;;;;;11.70;7.32;;;13.30;76.10;;;;;;5026897;28;20042;-61
2023/04/22 07:45:50;;;;;;;11.25;6.82;;;13.40;72.70;;;;;;5027445;28;20089;-61
2023/04/22 07:48:16;;;;;;;12.95;6.93;;;13.40;76.10;;;;;;5048025;28;20033;-62
2023/04/22 07:50:42;;;;;;;26.38;11.13;;;13.60;74.20;;;;;;5047986;28;20060;-62
2023/04/22 07:53:09;;;;;;;17.05;9.48;;;13.60;72.00;;;;;;5047863;28;20274;-61
2023/04/22 07:55:35;;;;;;;11.45;8.00;;;13.70;67.90;;;;;;5048934;28;20041;-63
2023/04/22 07:58:05;;;;;;;15.65;7.95;;;13.80;72.70;;;;;;5012022;28;20057;-63
2023/04/22 08:00:33;;;;;;;12.70;7.07;;;13.90;67.50;;;;;;5048258;28;20045;-63
2023/04/22 08:02:59;;;;;;;11.95;6.88;;;14.00;66.40;;;;;;5048580;28;20044;-63
2023/04/22 08:05:25;;;;;;;7.32;6.28;;;14.10;69.40;;;;;;5026767;28;20046;-63
2023/04/22 08:07:51;;;;;;;9.40;6.72;;;14.20;69.60;;;;;;5027787;28;20414;-63
2023/04/22 08:10:17;;;;;;;8.20;6.18;;;14.20;65.30;;;;;;4996639;28;20507;-63
2023/04/22 08:12:43;;;;;;;7.90;6.38;;;14.40;67.10;;;;;;5048224;28;20044;-62
2023/04/22 08:15:09;;;;;;;13.43;6.30;;;14.50;61.70;;;;;;5047194;28;20060;-63
2023/04/22 08:17:35;;;;;;;9.15;6.32;;;14.60;58.50;;;;;;5045897;28;20169;-63
2023/04/22 08:20:01;;;;;;;11.18;5.93;;;14.70;66.00;;;;;;4996652;28;20049;-63
2023/04/22 08:22:27;;;;;;;9.10;6.28;;;15.00;64.80;;;;;;5041243;28;20045;-63
2023/04/22 08:24:52;;;;;;;8.93;5.78;;;15.40;63.30;;;;;;4996464;28;20131;-63
2023/04/22 08:27:21;;;;;;;10.10;6.13;;;15.90;55.10;;;;;;5047886;28;20060;-63
2023/04/22 08:29:47;;;;;;;9.95;6.10;;;16.30;39.40;;;;;;5043196;28;20033;-63
2023/04/22 08:32:12;;;;;;;8.27;6.03;;;16.70;42.80;;;;;;5031230;28;20549;-63
2023/04/22 08:34:38;;;;;;;8.55;5.80;;;16.70;26.40;;;;;;5047956;28;20110;-63
2023/04/22 08:37:04;;;;;;;7.10;6.10;;;16.70;28.10;;;;;;5044281;28;20102;-63
2023/04/22 08:39:30;;;;;;;9.45;6.25;;;16.70;27.50;;;;;;5012764;28;20090;-63
2023/04/22 08:41:57;;;;;;;10.93;6.35;;;16.60;26.00;;;;;;5029893;28;20064;-63
2023/04/22 08:44:23;;;;;;;9.90;5.95;;;16.60;27.90;;;;;;5047494;28;20049;-63
2023/04/22 08:46:50;;;;;;;7.63;5.30;;;16.70;28.30;;;;;;5028842;28;20037;-63
2023/04/22 08:49:17;;;;;;;10.43;4.97;;;16.80;29.70;;;;;;5028630;28;20404;-64
2023/04/22 08:51:43;;;;;;;12.93;5.85;;;17.00;28.50;;;;;;5038358;28;20207;-63
2023/04/22 08:54:10;;;;;;;13.65;5.47;;;17.20;24.40;;;;;;5027905;28;20060;-63
2023/04/22 08:56:41;;;;;;;6.70;5.38;;;17.30;24.40;;;;;;5039171;28;20111;-63
2023/04/22 08:59:09;;;;;;;17.13;5.68;;;17.40;24.00;;;;;;5046559;28;20178;-63
2023/04/22 09:01:36;;;;;;;13.15;5.43;;;17.60;22.60;;;;;;5027388;28;20045;-63
2023/04/22 09:04:02;;;;;;;12.95;5.93;;;17.80;22.80;;;;;;5026266;28;20053;-63
2023/04/22 09:06:31;;;;;;;14.43;5.40;;;18.10;23.30;;;;;;5028274;28;20048;-63
2023/04/22 09:08:57;;;;;;;6.57;5.55;;;18.30;20.10;;;;;;5027433;28;20133;-63
2023/04/22 09:11:26;;;;;;;6.18;5.57;;;18.40;14.40;;;;;;5046497;28;20053;-63
2023/04/22 09:13:53;;;;;;;12.20;6.07;;;18.60;17.80;;;;;;5012684;28;20055;-63
2023/04/22 09:16:19;;;;;;;7.78;5.18;;;18.60;12.00;;;;;;5028829;28;20498;-63
2023/04/22 09:18:45;;;;;;;6.25;5.40;;;18.70;15.10;;;;;;5025308;28;20069;-63
2023/04/22 09:21:11;;;;;;;7.63;5.47;;;18.70;12.20;;;;;;5025829;28;20033;-63
2023/04/22 09:23:52;;;;;;;7.78;5.32;;;18.80;11.00;;;;;;5033954;28;20212;-63
2023/04/22 09:26:25;;;;;;;6.68;5.47;;;18.80;13.00;;;;;;5045031;28;20087;-64
2023/04/22 09:28:59;;;;;;;6.18;5.13;;;18.90;14.50;;;;;;5019472;28;20060;-63
2023/04/22 09:31:27;;;;;;;6.18;5.00;;;19.10;9.50;;;;;;5040618;28;20135;-63
2023/04/22 09:34:02;;;;;;;8.82;4.75;;;19.10;11.40;;;;;;5032695;28;20045;-63
2023/04/22 09:36:29;;;;;;;8.02;5.25;;;19.30;13.10;;;;;;5025001;28;20116;-63
2023/04/22 09:39:03;;;;;;;6.13;4.53;;;19.50;12.30;;;;;;5028707;28;20041;-63
2023/04/22 09:41:34;;;;;;;5.80;5.00;;;19.60;9.40;;;;;;5045826;28;20041;-63
2023/04/22 09:44:02;;;;;;;7.72;4.47;;;19.60;11.10;;;;;;5029583;28;20048;-63
2023/04/22 09:46:30;;;;;;;5.15;4.75;;;19.70;5.50;;;;;;5046051;28;20052;-63
2023/04/22 09:48:57;;;;;;;7.78;4.65;;;19.70;7.70;;;;;;5046217;28;20041;-63
2023/04/22 09:51:24;;;;;;;8.00;4.57;;;19.70;6.30;;;;;;5046629;28;20045;-63
2023/04/22 09:54:05;;;;;;;9.50;4.10;;;19.80;8.20;;;;;;5042218;28;20060;-63
2023/04/22 09:56:48;;;;;;;35.20;12.25;;;20.00;7.20;;;;;;5046875;28;20048;-62
2023/04/22 09:59:27;;;;;;;13.63;6.10;;;20.20;2.00;;;;;;5046097;28;20037;-63
2023/04/22 10:01:56;;;;;;;5.60;3.97;;;20.20;1.00;;;;;;5023721;28;20038;-63
2023/04/22 10:04:24;;;;;;;6.70;4.55;;;20.30;1.00;;;;;;5008070;28;20053;-60
2023/04/22 10:06:51;;;;;;;5.82;4.28;;;20.30;1.00;;;;;;5036376;28;20396;-60
2023/04/22 10:09:19;;;;;;;4.97;3.83;;;20.30;1.00;;;;;;5046220;28;20102;-60
2023/04/22 10:11:45;;;;;;;5.25;3.95;;;20.20;1.00;;;;;;5027041;28;20388;-60
2023/04/22 10:14:12;;;;;;;5.45;4.22;;;20.20;1.00;;;;;;5027337;28;20526;-60
2023/04/22 10:16:40;;;;;;;4.82;3.72;;;20.20;1.00;;;;;;5045271;28;20053;-60
2023/04/22 10:19:09;;;;;;;3.80;3.50;;;20.10;1.00;;;;;;5037399;28;20167;-60
2023/04/22 10:21:36;;;;;;;4.47;4.03;;;20.20;1.00;;;;;;5024756;28;20041;-60
2023/04/22 10:24:04;;;;;;;7.00;4.05;;;20.10;1.00;;;;;;5039064;28;20116;-60
2023/04/22 10:27:00;;;;;;;5.82;4.07;;;20.10;1.00;;;;;;5024120;28;20041;-60
2023/04/22 10:29:34;;;;;;;5.72;3.85;;;20.10;1.00;;;;;;5032069;28;20045;-60
2023/04/22 10:32:05;;;;;;;6.15;3.55;;;20.30;1.00;;;;;;5036210;28;20330;-80
2023/04/22 10:34:31;;;;;;;3.85;3.65;;;20.40;1.00;;;;;;5008264;28;20501;-60
2023/04/22 10:37:08;;;;;;;6.47;3.33;;;20.50;1.00;;;;;;5038971;28;20144;-60
2023/04/22 10:39:34;;;;;;;6.63;3.33;;;20.50;1.00;;;;;;5027850;28;20092;-60
2023/04/22 10:42:06;;;;;;;4.93;2.80;;;20.30;1.00;;;;;;5044462;28;20050;-60
2023/04/22 10:44:52;;;;;;;5.18;3.40;;;20.20;1.00;;;;;;5045258;28;20044;-60
2023/04/22 10:47:25;;;;;;;5.88;3.13;;;20.20;1.00;;;;;;5041162;28;20044;-61
2023/04/22 10:49:51;;;;;;;5.03;3.33;;;20.30;1.00;;;;;;5039790;28;20574;-60
2023/04/22 10:52:28;;;;;;;4.80;3.08;;;20.30;1.00;;;;;;5043626;28;20141;-60
2023/04/22 10:54:53;;;;;;;3.15;2.80;;;20.30;1.00;;;;;;5041810;28;20048;-60
2023/04/22 10:57:23;;;;;;;5.70;2.50;;;20.50;1.00;;;;;;5044544;28;20093;-61
2023/04/22 10:59:52;;;;;;;2.92;2.53;;;20.60;1.00;;;;;;5024643;28;20037;-60
2023/04/22 11:02:20;;;;;;;6.95;2.78;;;20.60;1.00;;;;;;5031897;28;20068;-71
2023/04/22 11:04:47;;;;;;;2.47;2.30;;;20.70;1.00;;;;;;5027127;28;20344;-60
2023/04/22 11:07:21;;;;;;;2.63;2.42;;;20.70;1.00;;;;;;5043146;28;20120;-60
2023/04/22 11:09:57;;;;;;;3.20;2.50;;;20.70;1.00;;;;;;5035352;28;20037;-60
2023/04/22 11:12:38;;;;;;;5.38;2.55;;;20.70;1.00;;;;;;5025595;28;20054;-60
2023/04/22 11:15:12;;;;;;;6.22;2.60;;;20.80;1.00;;;;;;5044891;28;20252;-71
2023/04/22 11:17:40;;;;;;;2.83;2.53;;;21.00;1.00;;;;;;5045377;28;20128;-60
2023/04/22 11:20:07;;;;;;;4.07;2.80;;;21.20;1.00;;;;;;5031382;28;20529;-60
2023/04/22 11:22:37;;;;;;;4.43;2.40;;;21.30;1.00;;;;;;5045518;28;20063;-60
2023/04/22 11:25:04;;;;;;;4.10;3.00;;;21.40;1.00;;;;;;5044171;28;20463;-60
2023/04/22 11:27:31;;;;;;;2.95;2.75;;;21.30;1.00;;;;;;5042240;28;20114;-60
2023/04/22 11:30:12;;;;;;;3.40;2.38;;;21.20;1.00;;;;;;5037824;28;20053;-60
2023/04/22 11:32:44;;;;;;;3.28;2.75;;;21.30;1.00;;;;;;5040351;28;20506;-60
2023/04/22 11:35:16;;;;;;;5.20;2.90;;;21.20;1.00;;;;;;5023626;28;20063;-60
2023/04/22 11:37:45;;;;;;;7.07;2.47;;;21.20;1.00;;;;;;5034794;28;20044;-60
2023/04/22 11:40:16;;;;;;;3.45;2.72;;;21.20;1.00;;;;;;5037080;28;20439;-60
2023/04/22 11:42:42;;;;;;;6.22;2.88;;;21.20;1.00;;;;;;5028678;28;20427;-60
2023/04/22 11:45:08;;;;;;;7.20;2.88;;;21.30;1.00;;;;;;5030011;28;20049;-60
2023/04/22 11:47:34;;;;;;;3.00;2.70;;;21.40;1.00;;;;;;5039327;28;20068;-60
2023/04/22 11:50:03;;;;;;;5.85;3.25;;;21.40;1.00;;;;;;5033450;28;20041;-60
2023/04/22 11:52:53;;;;;;;11.48;2.50;;;21.40;1.00;;;;;;5041304;28;20470;-60
2023/04/22 11:55:22;;;;;;;2.67;2.08;;;21.50;1.00;;;;;;5022946;28;20124;-60
2023/04/22 11:58:08;;;;;;;4.07;1.88;;;21.50;1.00;;;;;;5043012;28;20065;-60
2023/04/22 12:00:45;;;;;;;2.55;2.10;;;21.60;1.00;;;;;;5016073;28;20056;-60
2023/04/22 12:03:21;;;;;;;5.57;2.40;;;21.60;1.00;;;;;;5022790;28;20115;-60
2023/04/22 12:05:53;;;;;;;2.75;1.85;;;21.70;1.00;;;;;;5039334;28;20045;-60
2023/04/22 12:08:25;;;;;;;2.50;2.30;;;21.70;1.00;;;;;;5019754;28;20045;-60
2023/04/22 12:10:56;;;;;;;3.45;2.53;;;21.60;1.00;;;;;;5044850;28;20087;-60
2023/04/22 12:13:31;;;;;;;3.42;2.22;;;21.60;1.00;;;;;;5047696;28;20044;-60
2023/04/22 12:16:03;;;;;;;2.78;2.17;;;21.40;1.00;;;;;;5046472;28;20065;-60
2023/04/22 12:18:37;;;;;;;2.88;2.60;;;21.30;1.00;;;;;;5046092;28;20487;-60
2023/04/22 12:21:03;;;;;;;2.30;2.10;;;21.30;1.00;;;;;;5032406;28;20115;-60
2023/04/22 12:23:30;;;;;;;6.47;2.60;;;21.50;1.00;;;;;;5041187;28;20077;-92
2023/04/22 12:25:56;;;;;;;3.60;2.40;;;21.70;1.00;;;;;;5036739;28;20041;-60
2023/04/22 12:28:22;;;;;;;17.08;4.70;;;21.80;1.00;;;;;;5030317;28;20103;-60
2023/04/22 12:30:48;;;;;;;12.38;3.38;;;22.00;1.00;;;;;;5030146;28;20835;-60
2023/04/22 12:33:14;;;;;;;9.20;4.18;;;22.00;1.00;;;;;;5045123;28;20688;-60
2023/04/22 12:35:40;;;;;;;4.25;2.30;;;22.00;1.00;;;;;;5048004;28;20052;-60
2023/04/22 12:38:06;;;;;;;3.63;2.60;;;21.80;1.00;;;;;;5044420;28;20037;-60
2023/04/22 12:40:31;;;;;;;2.63;2.45;;;21.60;1.00;;;;;;5029883;28;20045;-81
2023/04/22 12:42:57;;;;;;;4.05;2.55;;;21.50;1.00;;;;;;5046708;28;20156;-60
2023/04/22 12:45:23;;;;;;;12.68;3.05;;;21.50;1.00;;;;;;5048762;28;20123;-59
2023/04/22 12:47:52;;;;;;;5.32;2.38;;;21.40;1.00;;;;;;5029082;28;20044;-64